sensor_id;sensor_type;location;lat;lon;timestamp;temperature;humidity
9425;DHT22;17139;52.140;11.636;2023-03-02T00:01:03;-1.70;51.90
9425;DHT22;17139;52.140;11.636;2023-03-02T00:03:31;-1.20;52.10
9425;DHT22;17139;52.140;11.636;2023-03-02T00:05:58;-1.30;51.30
9425;DHT22;17139;52.140;11.636;2023-03-02T00:08:26;-1.40;51.70
9425;DHT22;17139;52.140;11.636;2023-03-02T00:10:54;-1.60;51.80
9425;DHT22;17139;52.140;11.636;2023-03-02T00:13:23;-1.70;52.00
9425;DHT22;17139;52.140;11.636;2023-03-02T00:15:50;-1.70;52.20
9425;DHT22;17139;52.140;11.636;2023-03-02T00:18:17;-1.80;52.20
9425;DHT22;17139;52.140;11.636;2023-03-02T00:20:44;-1.80;52.30
9425;DHT22;17139;52.140;11.636;2023-03-02T00:23:11;-1.90;52.30
9425;DHT22;17139;52.140;11.636;2023-03-02T00:25:38;-1.90;52.30
9425;DHT22;17139;52.140;11.636;2023-03-02T00:28:05;-1.90;52.30
9425;DHT22;17139;52.140;11.636;2023-03-02T00:30:34;-1.90;52.40
9425;DHT22;17139;52.140;11.636;2023-03-02T00:33:03;-1.50;52.20
9425;DHT22;17139;52.140;11.636;2023-03-02T00:35:30;-1.60;51.50
9425;DHT22;17139;52.140;11.636;2023-03-02T00:37:57;-1.80;51.60
9425;DHT22;17139;52.140;11.636;2023-03-02T00:40:24;-1.90;51.90
9425;DHT22;17139;52.140;11.636;2023-03-02T00:42:51;-2.00;52.10
9425;DHT22;17139;52.140;11.636;2023-03-02T00:45:18;-2.10;52.30
9425;DHT22;17139;52.140;11.636;2023-03-02T00:47:47;-2.20;52.30
9425;DHT22;17139;52.140;11.636;2023-03-02T00:50:14;-2.20;52.30
9425;DHT22;17139;52.140;11.636;2023-03-02T00:52:41;-2.20;52.20
9425;DHT22;17139;52.140;11.636;2023-03-02T00:55:08;-2.20;52.20
9425;DHT22;17139;52.140;11.636;2023-03-02T00:57:35;-1.90;52.40
9425;DHT22;17139;52.140;11.636;2023-03-02T01:00:03;-1.30;51.80
9425;DHT22;17139;52.140;11.636;2023-03-02T01:02:31;-1.40;51.00
9425;DHT22;17139;52.140;11.636;2023-03-02T01:04:59;-1.70;51.20
9425;DHT22;17139;52.140;11.636;2023-03-02T01:07:26;-1.80;51.60
9425;DHT22;17139;52.140;11.636;2023-03-02T01:09:53;-1.90;51.80
9425;DHT22;17139;52.140;11.636;2023-03-02T01:12:20;-2.10;51.90
9425;DHT22;17139;52.140;11.636;2023-03-02T01:14:48;-2.10;52.10
9425;DHT22;17139;52.140;11.636;2023-03-02T01:17:16;-2.20;52.20
9425;DHT22;17139;52.140;11.636;2023-03-02T01:19:43;-2.20;52.20
9425;DHT22;17139;52.140;11.636;2023-03-02T01:22:11;-2.20;52.30
9425;DHT22;17139;52.140;11.636;2023-03-02T01:24:38;-2.20;52.40
9425;DHT22;17139;52.140;11.636;2023-03-02T01:27:05;-2.20;52.20
9425;DHT22;17139;52.140;11.636;2023-03-02T01:29:32;-2.30;52.20
9425;DHT22;17139;52.140;11.636;2023-03-02T01:31:59;-2.30;52.20
9425;DHT22;17139;52.140;11.636;2023-03-02T01:34:27;-2.30;52.30
9425;DHT22;17139;52.140;11.636;2023-03-02T01:36:54;-2.40;52.30
9425;DHT22;17139;52.140;11.636;2023-03-02T01:39:22;-2.40;52.30
9425;DHT22;17139;52.140;11.636;2023-03-02T01:41:51;-2.40;52.40
9425;DHT22;17139;52.140;11.636;2023-03-02T01:44:40;-2.40;52.30
9425;DHT22;17139;52.140;11.636;2023-03-02T01:47:13;-2.30;52.40
9425;DHT22;17139;52.140;11.636;2023-03-02T01:49:45;-2.10;52.40
9425;DHT22;17139;52.140;11.636;2023-03-02T01:52:14;-2.10;51.80
9425;DHT22;17139;52.140;11.636;2023-03-02T01:54:45;-2.20;51.80
9425;DHT22;17139;52.140;11.636;2023-03-02T01:57:17;-2.30;52.00
9425;DHT22;17139;52.140;11.636;2023-03-02T01:59:47;-2.40;52.10
9425;DHT22;17139;52.140;11.636;2023-03-02T02:02:16;-2.50;52.20
9425;DHT22;17139;52.140;11.636;2023-03-02T02:04:45;-2.50;52.30
9425;DHT22;17139;52.140;11.636;2023-03-02T02:07:13;-2.50;52.30
9425;DHT22;17139;52.140;11.636;2023-03-02T02:09:45;-2.50;52.30
9425;DHT22;17139;52.140;11.636;2023-03-02T02:12:13;-1.90;52.40
9425;DHT22;17139;52.140;11.636;2023-03-02T02:14:41;-2.00;51.50
9425;DHT22;17139;52.140;11.636;2023-03-02T02:17:10;-2.10;51.50
9425;DHT22;17139;52.140;11.636;2023-03-02T02:19:48;-2.30;51.80
9425;DHT22;17139;52.140;11.636;2023-03-02T02:22:29;-2.40;52.00
9425;DHT22;17139;52.140;11.636;2023-03-02T02:25:01;-1.90;52.20
9425;DHT22;17139;52.140;11.636;2023-03-02T02:27:31;-2.00;51.50
9425;DHT22;17139;52.140;11.636;2023-03-02T02:30:00;-2.30;51.60
9425;DHT22;17139;52.140;11.636;2023-03-02T02:32:30;-2.40;51.90
9425;DHT22;17139;52.140;11.636;2023-03-02T02:35:01;-2.50;52.00
9425;DHT22;17139;52.140;11.636;2023-03-02T02:37:32;-2.50;52.20
9425;DHT22;17139;52.140;11.636;2023-03-02T02:40:03;-2.60;52.30
9425;DHT22;17139;52.140;11.636;2023-03-02T02:42:37;-2.70;52.20
9425;DHT22;17139;52.140;11.636;2023-03-02T02:45:07;-2.70;52.30
9425;DHT22;17139;52.140;11.636;2023-03-02T02:47:43;-2.70;52.40
9425;DHT22;17139;52.140;11.636;2023-03-02T02:50:16;-2.80;52.40
9425;DHT22;17139;52.140;11.636;2023-03-02T02:52:45;-2.80;52.50
9425;DHT22;17139;52.140;11.636;2023-03-02T02:55:15;-2.20;52.60
9425;DHT22;17139;52.140;11.636;2023-03-02T02:57:46;-2.30;51.50
9425;DHT22;17139;52.140;11.636;2023-03-02T03:00:18;-2.40;51.70
9425;DHT22;17139;52.140;11.636;2023-03-02T03:02:49;-2.50;52.00
9425;DHT22;17139;52.140;11.636;2023-03-02T03:05:17;-2.60;52.10
9425;DHT22;17139;52.140;11.636;2023-03-02T03:07:44;-2.70;52.10
9425;DHT22;17139;52.140;11.636;2023-03-02T03:10:16;-2.80;52.20
9425;DHT22;17139;52.140;11.636;2023-03-02T03:12:46;-2.80;52.30
9425;DHT22;17139;52.140;11.636;2023-03-02T03:15:13;-2.80;52.30
9425;DHT22;17139;52.140;11.636;2023-03-02T03:17:45;-2.80;52.40
9425;DHT22;17139;52.140;11.636;2023-03-02T03:20:14;-2.80;52.30
9425;DHT22;17139;52.140;11.636;2023-03-02T03:22:42;-2.80;52.40
9425;DHT22;17139;52.140;11.636;2023-03-02T03:25:09;-2.60;52.60
9425;DHT22;17139;52.140;11.636;2023-03-02T03:27:40;-2.60;51.90
9425;DHT22;17139;52.140;11.636;2023-03-02T03:30:12;-2.60;52.00
9425;DHT22;17139;52.140;11.636;2023-03-02T03:32:40;-2.70;51.90
9425;DHT22;17139;52.140;11.636;2023-03-02T03:35:07;-2.70;52.00
9425;DHT22;17139;52.140;11.636;2023-03-02T03:37:37;-2.70;52.00
9425;DHT22;17139;52.140;11.636;2023-03-02T03:40:07;-2.70;52.10
9425;DHT22;17139;52.140;11.636;2023-03-02T03:42:36;-2.70;52.10
9425;DHT22;17139;52.140;11.636;2023-03-02T03:45:04;-2.80;52.00
9425;DHT22;17139;52.140;11.636;2023-03-02T03:47:33;-2.80;52.00
9425;DHT22;17139;52.140;11.636;2023-03-02T03:50:00;-2.80;52.00
9425;DHT22;17139;52.140;11.636;2023-03-02T03:52:27;-2.20;52.40
9425;DHT22;17139;52.140;11.636;2023-03-02T03:54:56;-2.20;51.30
9425;DHT22;17139;52.140;11.636;2023-03-02T03:57:24;-2.40;51.20
9425;DHT22;17139;52.140;11.636;2023-03-02T03:59:51;-2.50;51.40
9425;DHT22;17139;52.140;11.636;2023-03-02T04:02:19;-2.50;51.60
9425;DHT22;17139;52.140;11.636;2023-03-02T04:04:47;-2.60;52.30
9425;DHT22;17139;52.140;11.636;2023-03-02T04:07:14;-2.60;51.80
9425;DHT22;17139;52.140;11.636;2023-03-02T04:09:42;-2.70;51.90
9425;DHT22;17139;52.140;11.636;2023-03-02T04:12:10;-2.70;51.90
9425;DHT22;17139;52.140;11.636;2023-03-02T04:14:37;-2.70;52.00
9425;DHT22;17139;52.140;11.636;2023-03-02T04:17:04;-2.60;52.30
9425;DHT22;17139;52.140;11.636;2023-03-02T04:19:32;-2.20;52.30
9425;DHT22;17139;52.140;11.636;2023-03-02T04:22:03;-2.20;51.40
9425;DHT22;17139;52.140;11.636;2023-03-02T04:24:30;-2.40;51.40
9425;DHT22;17139;52.140;11.636;2023-03-02T04:27:00;-2.40;51.70
9425;DHT22;17139;52.140;11.636;2023-03-02T04:29:27;-2.50;51.80
9425;DHT22;17139;52.140;11.636;2023-03-02T04:31:56;-2.60;51.80
9425;DHT22;17139;52.140;11.636;2023-03-02T04:34:23;-2.60;51.90
9425;DHT22;17139;52.140;11.636;2023-03-02T04:36:51;-2.60;52.00
9425;DHT22;17139;52.140;11.636;2023-03-02T04:39:20;-2.70;52.00
9425;DHT22;17139;52.140;11.636;2023-03-02T04:41:47;-2.70;52.00
9425;DHT22;17139;52.140;11.636;2023-03-02T04:44:15;-2.70;52.00
9425;DHT22;17139;52.140;11.636;2023-03-02T04:46:43;-2.40;52.50
9425;DHT22;17139;52.140;11.636;2023-03-02T04:49:11;-2.40;51.70
9425;DHT22;17139;52.140;11.636;2023-03-02T04:51:40;-2.60;51.70
9425;DHT22;17139;52.140;11.636;2023-03-02T04:54:12;-2.70;51.90
9425;DHT22;17139;52.140;11.636;2023-03-02T04:56:40;-2.60;52.30
9425;DHT22;17139;52.140;11.636;2023-03-02T04:59:07;-2.60;51.90
9425;DHT22;17139;52.140;11.636;2023-03-02T05:01:35;-2.60;52.00
9425;DHT22;17139;52.140;11.636;2023-03-02T05:04:02;-2.60;51.90
9425;DHT22;17139;52.140;11.636;2023-03-02T05:06:29;-2.60;51.80
9425;DHT22;17139;52.140;11.636;2023-03-02T05:08:56;-2.60;51.70
9425;DHT22;17139;52.140;11.636;2023-03-02T05:11:24;-2.50;51.80
9425;DHT22;17139;52.140;11.636;2023-03-02T05:13:54;-2.50;51.70
9425;DHT22;17139;52.140;11.636;2023-03-02T05:16:23;-2.40;51.70
9425;DHT22;17139;52.140;11.636;2023-03-02T05:18:50;-2.40;51.60
9425;DHT22;17139;52.140;11.636;2023-03-02T05:21:17;-2.30;51.50
9425;DHT22;17139;52.140;11.636;2023-03-02T05:23:44;-2.30;51.40
9425;DHT22;17139;52.140;11.636;2023-03-02T05:26:12;-2.40;51.30
9425;DHT22;17139;52.140;11.636;2023-03-02T05:28:41;-2.20;51.80
9425;DHT22;17139;52.140;11.636;2023-03-02T05:31:15;-2.20;51.30
9425;DHT22;17139;52.140;11.636;2023-03-02T05:33:43;-2.20;51.30
9425;DHT22;17139;52.140;11.636;2023-03-02T05:36:10;-1.90;51.90
9425;DHT22;17139;52.140;11.636;2023-03-02T05:38:38;-1.90;51.20
9425;DHT22;17139;52.140;11.636;2023-03-02T05:41:05;-2.00;51.20
9425;DHT22;17139;52.140;11.636;2023-03-02T05:43:32;-2.10;51.40
9425;DHT22;17139;52.140;11.636;2023-03-02T05:45:59;-2.10;51.40
9425;DHT22;17139;52.140;11.636;2023-03-02T05:48:29;-2.10;51.40
9425;DHT22;17139;52.140;11.636;2023-03-02T05:50:56;-2.00;51.80
9425;DHT22;17139;52.140;11.636;2023-03-02T05:53:23;-1.50;51.90
9425;DHT22;17139;52.140;11.636;2023-03-02T05:55:51;-1.60;51.00
9425;DHT22;17139;52.140;11.636;2023-03-02T05:58:19;-1.80;51.20
9425;DHT22;17139;52.140;11.636;2023-03-02T06:00:47;-1.90;51.50
9425;DHT22;17139;52.140;11.636;2023-03-02T06:03:14;-2.00;51.50
9425;DHT22;17139;52.140;11.636;2023-03-02T06:05:43;-2.20;51.40
9425;DHT22;17139;52.140;11.636;2023-03-02T06:08:15;-2.20;51.60
9425;DHT22;17139;52.140;11.636;2023-03-02T06:10:42;-2.20;51.60
9425;DHT22;17139;52.140;11.636;2023-03-02T06:13:09;-2.20;51.50
9425;DHT22;17139;52.140;11.636;2023-03-02T06:15:36;-1.90;51.70
9425;DHT22;17139;52.140;11.636;2023-03-02T06:18:05;-1.20;52.20
9425;DHT22;17139;52.140;11.636;2023-03-02T06:20:32;-1.40;50.60
9425;DHT22;17139;52.140;11.636;2023-03-02T06:23:00;-1.60;50.90
9425;DHT22;17139;52.140;11.636;2023-03-02T06:25:30;-1.80;51.10
9425;DHT22;17139;52.140;11.636;2023-03-02T06:27:57;-1.90;51.30
9425;DHT22;17139;52.140;11.636;2023-03-02T06:30:24;-2.00;51.50
9425;DHT22;17139;52.140;11.636;2023-03-02T06:32:52;-2.00;51.50
9425;DHT22;17139;52.140;11.636;2023-03-02T06:35:20;-2.00;51.50
9425;DHT22;17139;52.140;11.636;2023-03-02T06:37:48;-2.10;51.50
9425;DHT22;17139;52.140;11.636;2023-03-02T06:40:17;-1.40;51.70
9425;DHT22;17139;52.140;11.636;2023-03-02T06:42:45;-1.60;50.80
9425;DHT22;17139;52.140;11.636;2023-03-02T06:45:12;-1.80;51.30
9425;DHT22;17139;52.140;11.636;2023-03-02T06:47:40;-1.90;51.60
9425;DHT22;17139;52.140;11.636;2023-03-02T06:50:08;-1.90;51.60
9425;DHT22;17139;52.140;11.636;2023-03-02T06:52:35;-1.90;51.60
9425;DHT22;17139;52.140;11.636;2023-03-02T06:55:03;-2.00;51.70
9425;DHT22;17139;52.140;11.636;2023-03-02T06:57:31;-1.90;51.70
9425;DHT22;17139;52.140;11.636;2023-03-02T07:00:00;-1.90;51.80
9425;DHT22;17139;52.140;11.636;2023-03-02T07:02:28;-1.60;51.80
9425;DHT22;17139;52.140;11.636;2023-03-02T07:04:55;-1.10;51.60
9425;DHT22;17139;52.140;11.636;2023-03-02T07:07:23;-1.30;50.80
9425;DHT22;17139;52.140;11.636;2023-03-02T07:09:49;-1.40;51.10
9425;DHT22;17139;52.140;11.636;2023-03-02T07:12:17;-1.50;52.00
9425;DHT22;17139;52.140;11.636;2023-03-02T07:14:45;-1.60;51.60
9425;DHT22;17139;52.140;11.636;2023-03-02T07:17:12;-1.60;51.70
9425;DHT22;17139;52.140;11.636;2023-03-02T07:19:39;-1.60;51.80
9425;DHT22;17139;52.140;11.636;2023-03-02T07:22:09;-1.60;51.80
9425;DHT22;17139;52.140;11.636;2023-03-02T07:24:36;-1.60;51.80
9425;DHT22;17139;52.140;11.636;2023-03-02T07:27:03;-1.50;51.90
9425;DHT22;17139;52.140;11.636;2023-03-02T07:29:30;-1.40;51.70
9425;DHT22;17139;52.140;11.636;2023-03-02T07:31:58;-1.40;51.90
9425;DHT22;17139;52.140;11.636;2023-03-02T07:34:25;-1.50;51.80
9425;DHT22;17139;52.140;11.636;2023-03-02T07:36:53;-1.50;51.80
9425;DHT22;17139;52.140;11.636;2023-03-02T07:39:20;-1.40;51.90
9425;DHT22;17139;52.140;11.636;2023-03-02T07:41:47;-1.30;51.70
9425;DHT22;17139;52.140;11.636;2023-03-02T07:44:14;-1.30;51.70
9425;DHT22;17139;52.140;11.636;2023-03-02T07:46:41;-1.30;51.60
9425;DHT22;17139;52.140;11.636;2023-03-02T07:49:09;-1.30;51.60
9425;DHT22;17139;52.140;11.636;2023-03-02T07:51:36;-1.30;51.80
9425;DHT22;17139;52.140;11.636;2023-03-02T07:54:03;-1.30;51.80
9425;DHT22;17139;52.140;11.636;2023-03-02T07:56:30;-1.40;51.80
9425;DHT22;17139;52.140;11.636;2023-03-02T07:58:57;-1.40;51.80
9425;DHT22;17139;52.140;11.636;2023-03-02T08:01:24;-1.30;51.90
9425;DHT22;17139;52.140;11.636;2023-03-02T08:03:52;-1.30;52.00
9425;DHT22;17139;52.140;11.636;2023-03-02T08:06:20;-0.70;51.80
9425;DHT22;17139;52.140;11.636;2023-03-02T08:08:47;-0.70;51.20
9425;DHT22;17139;52.140;11.636;2023-03-02T08:11:16;-0.80;51.50
9425;DHT22;17139;52.140;11.636;2023-03-02T08:13:43;-0.90;51.60
9425;DHT22;17139;52.140;11.636;2023-03-02T08:16:13;-0.90;51.80
9425;DHT22;17139;52.140;11.636;2023-03-02T08:18:41;-0.90;51.90
9425;DHT22;17139;52.140;11.636;2023-03-02T08:21:13;-0.90;51.90
9425;DHT22;17139;52.140;11.636;2023-03-02T08:23:41;-0.80;52.00
9425;DHT22;17139;52.140;11.636;2023-03-02T08:26:08;-0.80;52.00
9425;DHT22;17139;52.140;11.636;2023-03-02T08:28:36;-0.80;52.00
9425;DHT22;17139;52.140;11.636;2023-03-02T08:31:04;-0.60;52.10
9425;DHT22;17139;52.140;11.636;2023-03-02T08:33:31;-0.30;51.80
9425;DHT22;17139;52.140;11.636;2023-03-02T08:36:00;-0.30;51.40
9425;DHT22;17139;52.140;11.636;2023-03-02T08:38:28;-0.40;51.60
9425;DHT22;17139;52.140;11.636;2023-03-02T08:40:57;-0.50;51.70
9425;DHT22;17139;52.140;11.636;2023-03-02T08:43:25;-0.50;51.90
9425;DHT22;17139;52.140;11.636;2023-03-02T08:45:53;-0.50;51.80
9425;DHT22;17139;52.140;11.636;2023-03-02T08:48:21;-0.40;51.80
9425;DHT22;17139;52.140;11.636;2023-03-02T08:50:55;-0.40;51.70
9425;DHT22;17139;52.140;11.636;2023-03-02T08:53:24;-0.40;51.70
9425;DHT22;17139;52.140;11.636;2023-03-02T08:55:51;-0.20;51.80
9425;DHT22;17139;52.140;11.636;2023-03-02T08:58:20;0.50;52.10
9425;DHT22;17139;52.140;11.636;2023-03-02T09:00:47;0.40;51.20
9425;DHT22;17139;52.140;11.636;2023-03-02T09:03:14;0.30;51.20
9425;DHT22;17139;52.140;11.636;2023-03-02T09:05:42;0.30;51.40
9425;DHT22;17139;52.140;11.636;2023-03-02T09:08:11;0.30;51.50
9425;DHT22;17139;52.140;11.636;2023-03-02T09:10:38;0.40;51.60
9425;DHT22;17139;52.140;11.636;2023-03-02T09:13:05;0.40;51.70
9425;DHT22;17139;52.140;11.636;2023-03-02T09:15:33;0.30;51.60
9425;DHT22;17139;52.140;11.636;2023-03-02T09:18:00;0.30;51.70
9425;DHT22;17139;52.140;11.636;2023-03-02T09:20:27;0.30;51.70
9425;DHT22;17139;52.140;11.636;2023-03-02T09:22:55;0.70;52.20
9425;DHT22;17139;52.140;11.636;2023-03-02T09:25:22;0.80;51.60
9425;DHT22;17139;52.140;11.636;2023-03-02T09:27:49;0.80;51.60
9425;DHT22;17139;52.140;11.636;2023-03-02T09:30:16;0.80;52.20
9425;DHT22;17139;52.140;11.636;2023-03-02T09:32:45;0.80;51.60
9425;DHT22;17139;52.140;11.636;2023-03-02T09:35:13;0.70;51.50
9425;DHT22;17139;52.140;11.636;2023-03-02T09:37:40;0.80;51.60
9425;DHT22;17139;52.140;11.636;2023-03-02T09:40:16;0.80;51.70
9425;DHT22;17139;52.140;11.636;2023-03-02T09:43:02;0.90;51.70
9425;DHT22;17139;52.140;11.636;2023-03-02T09:45:50;0.90;51.70
9425;DHT22;17139;52.140;11.636;2023-03-02T09:48:26;0.90;51.70
9425;DHT22;17139;52.140;11.636;2023-03-02T09:51:04;0.90;51.80
9425;DHT22;17139;52.140;11.636;2023-03-02T09:53:41;0.80;51.80
9425;DHT22;17139;52.140;11.636;2023-03-02T09:56:14;1.00;52.10
9425;DHT22;17139;52.140;11.636;2023-03-02T09:58:47;1.00;51.80
9425;DHT22;17139;52.140;11.636;2023-03-02T10:01:21;1.00;52.00
9425;DHT22;17139;52.140;11.636;2023-03-02T10:03:59;0.90;52.10
9425;DHT22;17139;52.140;11.636;2023-03-02T10:06:28;0.90;52.30
9425;DHT22;17139;52.140;11.636;2023-03-02T10:08:56;0.90;52.40
9425;DHT22;17139;52.140;11.636;2023-03-02T10:11:30;1.00;52.40
9425;DHT22;17139;52.140;11.636;2023-03-02T10:14:04;1.10;52.30
9425;DHT22;17139;52.140;11.636;2023-03-02T10:16:36;1.30;52.30
9425;DHT22;17139;52.140;11.636;2023-03-02T10:19:11;1.40;52.10
9425;DHT22;17139;52.140;11.636;2023-03-02T10:21:43;1.50;52.10
9425;DHT22;17139;52.140;11.636;2023-03-02T10:24:20;2.10;52.30
9425;DHT22;17139;52.140;11.636;2023-03-02T10:26:52;2.80;51.50
9425;DHT22;17139;52.140;11.636;2023-03-02T10:29:32;2.40;50.90
9425;DHT22;17139;52.140;11.636;2023-03-02T10:32:15;2.10;51.30
9425;DHT22;17139;52.140;11.636;2023-03-02T10:34:44;1.80;51.60
9425;DHT22;17139;52.140;11.636;2023-03-02T10:37:14;1.60;51.80
9425;DHT22;17139;52.140;11.636;2023-03-02T10:39:42;1.60;52.20
9425;DHT22;17139;52.140;11.636;2023-03-02T10:42:14;1.40;52.00
9425;DHT22;17139;52.140;11.636;2023-03-02T10:44:46;1.30;52.30
9425;DHT22;17139;52.140;11.636;2023-03-02T10:47:22;1.40;52.60
9425;DHT22;17139;52.140;11.636;2023-03-02T10:49:52;1.50;52.50
9425;DHT22;17139;52.140;11.636;2023-03-02T10:52:22;2.00;53.20
9425;DHT22;17139;52.140;11.636;2023-03-02T10:54:49;2.00;52.10
9425;DHT22;17139;52.140;11.636;2023-03-02T10:57:36;1.90;52.10
9425;DHT22;17139;52.140;11.636;2023-03-02T11:00:14;1.80;52.40
9425;DHT22;17139;52.140;11.636;2023-03-02T11:02:53;1.80;52.40
9425;DHT22;17139;52.140;11.636;2023-03-02T11:05:26;1.80;52.60
9425;DHT22;17139;52.140;11.636;2023-03-02T11:07:55;1.80;52.70
9425;DHT22;17139;52.140;11.636;2023-03-02T11:10:25;1.80;52.70
9425;DHT22;17139;52.140;11.636;2023-03-02T11:12:57;2.00;52.60
9425;DHT22;17139;52.140;11.636;2023-03-02T11:15:27;2.10;52.60
9425;DHT22;17139;52.140;11.636;2023-03-02T11:18:22;2.20;52.40
9425;DHT22;17139;52.140;11.636;2023-03-02T11:20:53;2.10;52.30
9425;DHT22;17139;52.140;11.636;2023-03-02T11:23:25;2.00;52.50
9425;DHT22;17139;52.140;11.636;2023-03-02T11:25:58;2.00;52.50
9425;DHT22;17139;52.140;11.636;2023-03-02T11:28:40;2.10;52.60
9425;DHT22;17139;52.140;11.636;2023-03-02T11:31:15;2.20;52.60
9425;DHT22;17139;52.140;11.636;2023-03-02T11:33:58;2.10;52.60
9425;DHT22;17139;52.140;11.636;2023-03-02T11:36:34;2.10;52.60
9425;DHT22;17139;52.140;11.636;2023-03-02T11:39:03;2.00;52.60
9425;DHT22;17139;52.140;11.636;2023-03-02T11:41:34;2.10;52.60
9425;DHT22;17139;52.140;11.636;2023-03-02T11:44:11;2.10;52.60
9425;DHT22;17139;52.140;11.636;2023-03-02T11:46:39;2.20;52.60
9425;DHT22;17139;52.140;11.636;2023-03-02T11:49:21;2.30;52.40
9425;DHT22;17139;52.140;11.636;2023-03-02T11:51:54;2.20;52.30
9425;DHT22;17139;52.140;11.636;2023-03-02T11:54:31;2.10;52.40
9425;DHT22;17139;52.140;11.636;2023-03-02T11:57:02;2.10;52.60
9425;DHT22;17139;52.140;11.636;2023-03-02T11:59:29;2.10;52.60
9425;DHT22;17139;52.140;11.636;2023-03-02T12:01:58;2.10;52.60
9425;DHT22;17139;52.140;11.636;2023-03-02T12:04:28;2.20;52.70
9425;DHT22;17139;52.140;11.636;2023-03-02T12:06:59;2.20;52.70
9425;DHT22;17139;52.140;11.636;2023-03-02T12:09:35;3.10;52.70
9425;DHT22;17139;52.140;11.636;2023-03-02T12:12:37;2.90;51.90
9425;DHT22;17139;52.140;11.636;2023-03-02T12:15:27;2.70;52.30
9425;DHT22;17139;52.140;11.636;2023-03-02T12:17:54;2.70;52.60
9425;DHT22;17139;52.140;11.636;2023-03-02T12:20:25;2.60;52.50
9425;DHT22;17139;52.140;11.636;2023-03-02T12:23:06;2.60;52.70
9425;DHT22;17139;52.140;11.636;2023-03-02T12:25:42;2.90;52.60
9425;DHT22;17139;52.140;11.636;2023-03-02T12:28:28;2.70;52.30
9425;DHT22;17139;52.140;11.636;2023-03-02T12:31:03;2.50;52.60
9425;DHT22;17139;52.140;11.636;2023-03-02T12:33:30;2.40;53.00
9425;DHT22;17139;52.140;11.636;2023-03-02T12:36:10;2.30;53.20
9425;DHT22;17139;52.140;11.636;2023-03-02T12:38:40;2.40;53.40
9425;DHT22;17139;52.140;11.636;2023-03-02T12:44:33;2.40;53.30
9425;DHT22;17139;52.140;11.636;2023-03-02T12:47:05;3.00;53.30
9425;DHT22;17139;52.140;11.636;2023-03-02T12:49:54;2.90;52.70
9425;DHT22;17139;52.140;11.636;2023-03-02T12:52:27;2.70;52.90
9425;DHT22;17139;52.140;11.636;2023-03-02T12:55:04;3.30;53.20
9425;DHT22;17139;52.140;11.636;2023-03-02T12:57:32;3.20;52.50
9425;DHT22;17139;52.140;11.636;2023-03-02T13:00:01;2.90;52.50
9425;DHT22;17139;52.140;11.636;2023-03-02T13:02:30;2.80;52.80
9425;DHT22;17139;52.140;11.636;2023-03-02T13:04:59;2.60;53.00
9425;DHT22;17139;52.140;11.636;2023-03-02T13:07:29;2.50;53.30
9425;DHT22;17139;52.140;11.636;2023-03-02T13:10:05;3.00;53.30
9425;DHT22;17139;52.140;11.636;2023-03-02T13:12:36;3.80;52.60
9425;DHT22;17139;52.140;11.636;2023-03-02T13:15:13;3.50;52.10
9425;DHT22;17139;52.140;11.636;2023-03-02T13:17:41;3.30;52.60
9425;DHT22;17139;52.140;11.636;2023-03-02T13:20:12;3.20;52.70
9425;DHT22;17139;52.140;11.636;2023-03-02T13:22:40;3.00;52.90
9425;DHT22;17139;52.140;11.636;2023-03-02T13:25:21;2.90;53.20
9425;DHT22;17139;52.140;11.636;2023-03-02T13:27:51;2.80;53.30
9425;DHT22;17139;52.140;11.636;2023-03-02T13:30:23;2.70;53.50
9425;DHT22;17139;52.140;11.636;2023-03-02T13:32:50;2.70;53.50
9425;DHT22;17139;52.140;11.636;2023-03-02T13:35:23;2.70;53.60
9425;DHT22;17139;52.140;11.636;2023-03-02T13:37:57;2.70;53.30
9425;DHT22;17139;52.140;11.636;2023-03-02T13:40:32;2.70;53.60
9425;DHT22;17139;52.140;11.636;2023-03-02T13:42:59;2.70;53.60
9425;DHT22;17139;52.140;11.636;2023-03-02T13:45:28;2.60;53.50
9425;DHT22;17139;52.140;11.636;2023-03-02T13:47:58;2.60;53.60
9425;DHT22;17139;52.140;11.636;2023-03-02T13:50:27;2.50;53.70
9425;DHT22;17139;52.140;11.636;2023-03-02T13:52:56;2.70;53.80
9425;DHT22;17139;52.140;11.636;2023-03-02T13:55:23;2.70;53.70
9425;DHT22;17139;52.140;11.636;2023-03-02T13:57:52;2.80;53.60
9425;DHT22;17139;52.140;11.636;2023-03-02T14:00:29;2.80;53.30
9425;DHT22;17139;52.140;11.636;2023-03-02T14:02:57;2.80;53.40
9425;DHT22;17139;52.140;11.636;2023-03-02T14:05:25;2.90;53.50
9425;DHT22;17139;52.140;11.636;2023-03-02T14:07:57;2.90;53.40
9425;DHT22;17139;52.140;11.636;2023-03-02T14:10:25;2.70;53.50
9425;DHT22;17139;52.140;11.636;2023-03-02T14:12:57;2.70;53.70
9425;DHT22;17139;52.140;11.636;2023-03-02T14:15:25;2.70;53.80
9425;DHT22;17139;52.140;11.636;2023-03-02T14:17:52;2.80;53.70
9425;DHT22;17139;52.140;11.636;2023-03-02T14:20:20;2.80;53.60
9425;DHT22;17139;52.140;11.636;2023-03-02T14:22:47;2.70;53.60
9425;DHT22;17139;52.140;11.636;2023-03-02T14:25:15;2.70;53.70
9425;DHT22;17139;52.140;11.636;2023-03-02T14:27:43;2.60;53.70
9425;DHT22;17139;52.140;11.636;2023-03-02T14:30:18;2.60;54.10
9425;DHT22;17139;52.140;11.636;2023-03-02T14:32:45;2.50;53.70
9425;DHT22;17139;52.140;11.636;2023-03-02T14:35:13;2.50;53.90
9425;DHT22;17139;52.140;11.636;2023-03-02T14:37:43;2.40;53.80
9425;DHT22;17139;52.140;11.636;2023-03-02T14:40:17;2.40;53.80
9425;DHT22;17139;52.140;11.636;2023-03-02T14:42:46;2.40;53.90
9425;DHT22;17139;52.140;11.636;2023-03-02T14:45:19;2.20;53.80
9425;DHT22;17139;52.140;11.636;2023-03-02T14:47:47;2.10;53.90
9425;DHT22;17139;52.140;11.636;2023-03-02T14:50:14;2.10;54.00
9425;DHT22;17139;52.140;11.636;2023-03-02T14:52:44;2.10;54.10
9425;DHT22;17139;52.140;11.636;2023-03-02T14:55:15;2.00;54.10
9425;DHT22;17139;52.140;11.636;2023-03-02T14:57:44;2.10;54.20
9425;DHT22;17139;52.140;11.636;2023-03-02T15:00:13;2.30;54.10
9425;DHT22;17139;52.140;11.636;2023-03-02T15:02:42;2.30;53.60
9425;DHT22;17139;52.140;11.636;2023-03-02T15:05:09;2.30;53.70
9425;DHT22;17139;52.140;11.636;2023-03-02T15:07:36;2.20;53.80
9425;DHT22;17139;52.140;11.636;2023-03-02T15:10:05;2.20;54.00
9425;DHT22;17139;52.140;11.636;2023-03-02T15:12:32;2.20;54.00
9425;DHT22;17139;52.140;11.636;2023-03-02T15:14:59;2.20;54.10
9425;DHT22;17139;52.140;11.636;2023-03-02T15:17:26;2.00;54.10
9425;DHT22;17139;52.140;11.636;2023-03-02T15:19:55;1.90;54.30
9425;DHT22;17139;52.140;11.636;2023-03-02T15:22:21;1.80;54.40
9425;DHT22;17139;52.140;11.636;2023-03-02T15:24:49;1.80;54.50
9425;DHT22;17139;52.140;11.636;2023-03-02T15:27:16;2.00;54.60
9425;DHT22;17139;52.140;11.636;2023-03-02T15:29:44;2.00;54.00
9425;DHT22;17139;52.140;11.636;2023-03-02T15:32:11;1.90;54.10
9425;DHT22;17139;52.140;11.636;2023-03-02T15:34:41;1.80;54.40
9425;DHT22;17139;52.140;11.636;2023-03-02T15:37:10;1.70;54.40
9425;DHT22;17139;52.140;11.636;2023-03-02T15:39:38;1.60;54.30
9425;DHT22;17139;52.140;11.636;2023-03-02T15:42:05;1.60;54.60
9425;DHT22;17139;52.140;11.636;2023-03-02T15:44:35;1.50;54.60
9425;DHT22;17139;52.140;11.636;2023-03-02T15:47:02;1.40;54.60
9425;DHT22;17139;52.140;11.636;2023-03-02T15:49:29;1.80;54.60
9425;DHT22;17139;52.140;11.636;2023-03-02T15:51:57;1.90;54.20
9425;DHT22;17139;52.140;11.636;2023-03-02T15:54:27;1.80;53.80
9425;DHT22;17139;52.140;11.636;2023-03-02T15:56:54;1.60;54.30